createdAt,value
2023-04-18T00:02:38.649Z,93.84
2023-04-18T00:05:18.483Z,93.82
2023-04-18T00:07:54.773Z,93.79
2023-04-18T00:10:31.187Z,93.76
2023-04-18T00:13:07.560Z,93.73
2023-04-18T00:15:44.914Z,93.72
2023-04-18T00:18:21.516Z,93.70
2023-04-18T00:20:57.792Z,93.67
2023-04-18T00:23:43.693Z,93.63
2023-04-18T00:26:20.333Z,93.59
2023-04-18T00:28:56.921Z,93.54
2023-04-18T00:31:33.574Z,93.48
2023-04-18T00:34:10.048Z,93.45
2023-04-18T00:36:46.513Z,93.40
2023-04-18T00:39:25.131Z,93.36
2023-04-18T00:42:01.765Z,93.33
2023-04-18T00:44:38.585Z,93.31
2023-04-18T00:47:14.766Z,93.27
2023-04-18T00:49:52.762Z,93.22
2023-04-18T00:52:33.901Z,93.11
2023-04-18T00:55:13.197Z,92.98
2023-04-18T00:57:49.848Z,92.90
2023-04-18T01:00:29.158Z,92.85
2023-04-18T01:03:06.791Z,92.82
2023-04-18T01:05:43.838Z,92.78
2023-04-18T01:08:20.687Z,92.73
2023-04-18T01:10:56.977Z,92.67
2023-04-18T01:13:33.243Z,92.60
2023-04-18T01:16:10.836Z,92.59
2023-04-18T01:18:47.376Z,92.59
2023-04-18T01:21:23.659Z,92.60
2023-04-18T01:24:08.021Z,92.61
2023-04-18T01:26:47.604Z,92.63
2023-04-18T01:29:23.896Z,92.69
2023-04-18T01:32:02.660Z,92.80
2023-04-18T01:34:39.627Z,92.79
2023-04-18T01:37:16.399Z,92.79
2023-04-18T01:39:53.940Z,92.76
2023-04-18T01:42:31.107Z,92.88
2023-04-18T01:45:09.461Z,93.00
2023-04-18T01:47:46.099Z,92.95
2023-04-18T01:50:22.625Z,93.05
2023-04-18T01:52:58.801Z,93.04
2023-04-18T01:55:35.364Z,93.06
2023-04-18T01:58:11.626Z,93.16
2023-04-18T02:00:47.948Z,93.21
2023-04-18T02:03:24.406Z,93.22
2023-04-18T02:06:02.627Z,93.37
2023-04-18T02:08:38.937Z,93.39
2023-04-18T02:11:15.271Z,93.37
2023-04-18T02:13:53.514Z,93.40
2023-04-18T02:16:30.422Z,93.46
2023-04-18T02:19:07.014Z,93.48
2023-04-18T02:21:44.654Z,93.52
2023-04-18T02:24:21.240Z,93.58
2023-04-18T02:26:57.586Z,93.59
2023-04-18T02:29:36.035Z,93.59
2023-04-18T02:32:13.874Z,93.57
2023-04-18T02:34:52.723Z,93.59
2023-04-18T02:37:29.201Z,93.58
2023-04-18T02:40:07.287Z,93.55
2023-04-18T02:42:43.557Z,93.52
2023-04-18T02:45:23.379Z,93.50
2023-04-18T02:48:00.127Z,93.46
2023-04-18T02:50:36.673Z,93.44
2023-04-18T02:53:13.235Z,93.46
2023-04-18T02:55:58.896Z,93.48
2023-04-18T02:58:41.653Z,93.50
2023-04-18T03:01:31.942Z,93.48
2023-04-18T03:04:16.808Z,93.51
2023-04-18T03:07:00.489Z,93.51
2023-04-18T03:09:38.028Z,93.51
2023-04-18T03:12:25.808Z,93.50
2023-04-18T03:15:03.084Z,93.47
2023-04-18T03:17:40.914Z,93.40
2023-04-18T03:20:19.557Z,93.38
2023-04-18T03:22:55.833Z,93.37
2023-04-18T03:25:34.324Z,93.33
2023-04-18T03:28:11.435Z,93.33
2023-04-18T03:30:48.903Z,93.33
2023-04-18T03:33:25.418Z,93.32
2023-04-18T03:36:06.716Z,93.28
2023-04-18T03:38:44.430Z,93.25
2023-04-18T03:41:20.942Z,93.17
2023-04-18T03:43:57.238Z,93.12
2023-04-18T03:46:33.800Z,93.04
2023-04-18T03:49:10.168Z,93.00
2023-04-18T03:51:52.154Z,92.99
2023-04-18T03:54:28.641Z,92.93
2023-04-18T03:57:04.920Z,92.87
2023-04-18T03:59:42.319Z,92.82
2023-04-18T04:02:18.834Z,92.75
2023-04-18T04:04:55.924Z,92.65
2023-04-18T04:07:33.136Z,92.36
2023-04-18T04:10:11.625Z,92.25
2023-04-18T04:12:48.363Z,92.20
2023-04-18T04:15:25.623Z,92.00
2023-04-18T04:18:06.996Z,91.80
2023-04-18T04:20:45.208Z,91.57
2023-04-18T04:23:25.609Z,91.40
2023-04-18T04:26:04.218Z,91.38
2023-04-18T04:28:53.654Z,90.98
2023-04-18T04:31:32.575Z,90.84
2023-04-18T04:34:09.734Z,90.39
2023-04-18T04:36:46.796Z,89.87
2023-04-18T04:39:23.487Z,89.43
2023-04-18T04:42:42.469Z,88.34
2023-04-18T04:45:24.759Z,88.33
2023-04-18T04:48:01.892Z,87.87
2023-04-18T04:50:42.553Z,87.88
2023-04-18T04:53:21.186Z,87.72
2023-04-18T04:55:58.699Z,87.87
2023-04-18T04:58:35.385Z,87.97
2023-04-18T05:01:30.658Z,87.91
2023-04-18T05:04:08.583Z,87.86
2023-04-18T05:06:45.263Z,88.00
2023-04-18T05:09:21.684Z,88.05
2023-04-18T05:12:04.694Z,87.99
2023-04-18T05:14:41.046Z,88.00
2023-04-18T05:17:17.288Z,88.10
2023-04-18T05:19:53.573Z,88.00
2023-04-18T05:22:30.135Z,87.54
2023-04-18T05:25:08.338Z,87.43
2023-04-18T05:27:46.368Z,87.09
2023-04-18T05:30:23.294Z,86.93
2023-04-18T05:32:59.653Z,86.46
2023-04-18T05:35:37.706Z,86.29
2023-04-18T05:38:14.120Z,85.18
2023-04-18T05:40:51.205Z,83.21
2023-04-18T05:43:27.766Z,81.80
2023-04-18T05:46:09.162Z,81.53
2023-04-18T05:48:45.675Z,78.60
2023-04-18T05:51:21.957Z,76.68
2023-04-18T05:53:58.356Z,77.14
2023-04-18T05:56:34.714Z,77.21
2023-04-18T05:59:14.959Z,75.51
2023-04-18T06:01:51.675Z,75.48
2023-04-18T06:04:28.205Z,75.06
2023-04-18T06:07:04.995Z,75.52
2023-04-18T06:09:41.470Z,76.07
2023-04-18T06:12:17.825Z,77.38
2023-04-18T06:14:54.144Z,78.51
2023-04-18T06:17:34.502Z,79.39
2023-04-18T06:20:13.726Z,80.00
2023-04-18T06:22:50.052Z,80.39
2023-04-18T06:25:27.233Z,80.71
2023-04-18T06:28:03.685Z,81.09
2023-04-18T06:30:40.199Z,81.28
2023-04-18T06:33:16.426Z,81.31
2023-04-18T06:35:53.121Z,81.67
2023-04-18T06:38:29.794Z,81.56
2023-04-18T06:41:06.289Z,81.40
2023-04-18T06:43:52.096Z,81.24
2023-04-18T06:46:38.234Z,81.03
2023-04-18T06:49:14.678Z,81.01
2023-04-18T06:51:55.720Z,81.27
2023-04-18T06:54:31.943Z,81.21
2023-04-18T06:57:10.123Z,80.83
2023-04-18T06:59:46.439Z,80.50
2023-04-18T07:02:29.046Z,80.26
2023-04-18T07:05:05.976Z,80.35
2023-04-18T07:07:42.409Z,79.95
2023-04-18T07:10:20.006Z,79.29
2023-04-18T07:12:56.301Z,79.02
2023-04-18T07:15:33.736Z,78.52
2023-04-18T07:18:11.006Z,79.00
2023-04-18T07:20:47.343Z,78.20
2023-04-18T07:23:23.737Z,77.88
2023-04-18T07:26:02.325Z,77.14
2023-04-18T07:28:38.884Z,77.49
2023-04-18T07:31:16.718Z,76.52
2023-04-18T07:33:54.394Z,76.32
2023-04-18T07:36:31.491Z,73.66
2023-04-18T07:39:08.761Z,73.25
2023-04-18T07:41:44.990Z,72.62
2023-04-18T07:44:21.711Z,70.52
2023-04-18T07:46:59.756Z,66.87
2023-04-18T07:49:36.058Z,65.11
2023-04-18T07:52:12.440Z,63.33
2023-04-18T07:54:49.008Z,63.53
2023-04-18T07:57:25.312Z,61.27
2023-04-18T08:00:01.759Z,60.55
2023-04-18T08:02:49.365Z,59.61
2023-04-18T08:05:29.423Z,59.73
2023-04-18T08:08:06.823Z,57.75
2023-04-18T08:10:43.279Z,55.40
2023-04-18T08:13:19.840Z,53.54
2023-04-18T08:15:57.959Z,54.48
2023-04-18T08:18:34.942Z,51.50
2023-04-18T08:21:11.979Z,50.66
2023-04-18T08:23:49.766Z,49.20
2023-04-18T08:26:26.383Z,50.79
2023-04-18T08:29:03.304Z,51.33
2023-04-18T08:31:39.988Z,51.69
2023-04-18T08:34:17.348Z,52.77
2023-04-18T08:36:55.051Z,54.22
2023-04-18T08:39:31.386Z,54.54
2023-04-18T08:42:11.513Z,54.93
2023-04-18T08:44:48.377Z,55.28
2023-04-18T08:47:25.840Z,55.88
2023-04-18T08:50:03.907Z,57.20
2023-04-18T08:52:47.522Z,57.60
2023-04-18T08:55:24.336Z,55.42
2023-04-18T08:58:01.743Z,55.49
2023-04-18T09:00:38.882Z,55.60
2023-04-18T09:03:18.753Z,55.17
2023-04-18T09:06:16.227Z,55.13
2023-04-18T09:09:04.482Z,55.04
2023-04-18T09:11:43.388Z,55.39
2023-04-18T09:14:29.390Z,55.22
2023-04-18T09:17:07.030Z,52.98
2023-04-18T09:19:50.508Z,53.31
2023-04-18T09:22:27.271Z,52.98
2023-04-18T09:25:05.889Z,54.59
2023-04-18T09:27:42.886Z,54.57
2023-04-18T09:30:42.288Z,53.87
2023-04-18T09:33:19.092Z,55.07
2023-04-18T09:35:55.764Z,54.40
2023-04-18T09:38:45.889Z,53.81
2023-04-18T09:41:23.560Z,53.03
2023-04-18T09:44:17.722Z,53.75
2023-04-18T09:46:55.696Z,54.10
2023-04-18T09:49:33.755Z,51.47
2023-04-18T09:52:11.345Z,52.80
2023-04-18T09:54:54.136Z,53.10
2023-04-18T09:57:34.756Z,51.65
2023-04-18T10:00:21.628Z,51.78
2023-04-18T10:03:09.997Z,53.77
2023-04-18T10:05:48.679Z,53.62
2023-04-18T10:08:27.693Z,52.23
2023-04-18T10:11:04.255Z,51.45
2023-04-18T10:13:44.440Z,49.69
2023-04-18T10:16:22.495Z,48.68
2023-04-18T10:18:59.606Z,47.41
2023-04-18T10:21:37.012Z,48.38
2023-04-18T10:24:56.391Z,48.73
2023-04-18T10:28:04.294Z,48.70
2023-04-18T10:31:04.315Z,48.81
2023-04-18T10:34:00.774Z,48.41
2023-04-18T10:37:07.823Z,47.75
2023-04-18T10:40:02.020Z,48.81
2023-04-18T10:43:06.902Z,48.44
2023-04-18T10:45:43.827Z,50.15
2023-04-18T10:48:32.786Z,50.94
2023-04-18T10:51:23.703Z,49.14
2023-04-18T10:54:03.884Z,50.12
2023-04-18T10:56:40.875Z,50.28
2023-04-18T10:59:17.699Z,48.70
2023-04-18T11:01:58.349Z,48.52
2023-04-18T11:04:37.876Z,49.00
2023-04-18T11:07:14.254Z,48.53
2023-04-18T11:09:59.791Z,47.67
2023-04-18T11:12:41.538Z,48.12
2023-04-18T11:15:22.114Z,48.04
2023-04-18T11:18:07.080Z,47.99
2023-04-18T11:20:52.438Z,48.89
2023-04-18T11:23:28.644Z,46.84
2023-04-18T11:26:07.604Z,48.16
2023-04-18T11:28:51.550Z,48.60
2023-04-18T11:31:29.864Z,47.00
2023-04-18T11:34:06.364Z,45.76
2023-04-18T11:36:42.954Z,46.51
2023-04-18T11:39:24.953Z,47.09
2023-04-18T11:42:01.977Z,47.18
2023-04-18T11:44:42.813Z,47.21
2023-04-18T11:47:33.124Z,46.85
2023-04-18T11:50:13.659Z,47.63
2023-04-18T11:52:55.439Z,46.91
2023-04-18T11:55:31.892Z,45.62
2023-04-18T11:58:08.278Z,46.13
2023-04-18T12:00:47.607Z,47.22
2023-04-18T12:03:24.870Z,46.97
2023-04-18T12:06:06.261Z,47.16
2023-04-18T12:08:45.855Z,47.52
2023-04-18T12:11:25.736Z,44.79
2023-04-18T12:14:04.113Z,44.37
2023-04-18T12:16:42.694Z,43.34
2023-04-18T12:19:20.620Z,42.38
2023-04-18T12:22:06.673Z,40.97
2023-04-18T12:24:43.587Z,43.08
2023-04-18T12:27:21.436Z,41.93
2023-04-18T12:29:58.178Z,39.79
2023-04-18T12:32:34.545Z,40.94
2023-04-18T12:35:13.695Z,41.04
2023-04-18T12:37:51.427Z,42.41
2023-04-18T12:40:28.908Z,43.17
2023-04-18T12:43:05.267Z,42.69
2023-04-18T12:45:41.841Z,41.53
2023-04-18T12:48:18.308Z,41.79
2023-04-18T12:50:54.555Z,41.98
2023-04-18T12:53:30.947Z,42.54
2023-04-18T12:56:08.228Z,42.07
2023-04-18T12:58:44.510Z,43.56
2023-04-18T13:01:21.121Z,43.17
2023-04-18T13:04:08.796Z,44.21
2023-04-18T13:06:49.031Z,43.28
2023-04-18T13:09:27.016Z,42.85
2023-04-18T13:12:03.756Z,42.60
2023-04-18T13:14:40.079Z,43.40
2023-04-18T13:17:16.557Z,43.66
2023-04-18T13:19:53.733Z,44.07
2023-04-18T13:22:31.056Z,44.13
2023-04-18T13:25:10.462Z,44.37
2023-04-18T13:27:47.227Z,44.59
2023-04-18T13:30:25.146Z,42.57
2023-04-18T13:33:01.649Z,39.54
2023-04-18T13:35:38.786Z,38.55
2023-04-18T13:38:15.153Z,37.82
2023-04-18T13:41:01.054Z,39.54
2023-04-18T13:43:45.181Z,39.95
2023-04-18T13:46:23.440Z,41.18
2023-04-18T13:49:01.280Z,41.13
2023-04-18T13:51:44.941Z,41.98
2023-04-18T13:54:21.372Z,42.41
2023-04-18T13:56:58.896Z,41.88
2023-04-18T13:59:36.755Z,43.11
2023-04-18T14:02:13.861Z,43.72
2023-04-18T14:04:52.273Z,44.98
2023-04-18T14:07:28.553Z,45.22
2023-04-18T14:10:05.259Z,43.41
2023-04-18T14:12:41.966Z,43.75
2023-04-18T14:15:19.154Z,44.09
2023-04-18T14:17:55.885Z,44.56
2023-04-18T14:20:34.716Z,45.07
2023-04-18T14:23:10.987Z,44.84
2023-04-18T14:25:47.599Z,44.95
2023-04-18T14:28:25.155Z,44.48
2023-04-18T14:31:03.122Z,45.03
2023-04-18T14:33:39.973Z,45.31
2023-04-18T14:36:17.118Z,45.28
2023-04-18T14:38:55.153Z,45.22
2023-04-18T14:41:31.595Z,44.30
2023-04-18T14:44:08.527Z,45.62
2023-04-18T14:46:46.893Z,46.38
2023-04-18T14:49:23.556Z,47.52
2023-04-18T14:51:59.956Z,47.28
2023-04-18T14:54:36.219Z,45.79
2023-04-18T14:57:13.059Z,45.69
2023-04-18T14:59:49.887Z,46.23
2023-04-18T15:02:26.524Z,45.23
2023-04-18T15:05:03.882Z,45.15
2023-04-18T15:07:40.966Z,44.83
2023-04-18T15:10:17.891Z,45.89
2023-04-18T15:12:54.362Z,47.05
2023-04-18T15:15:35.023Z,47.11
2023-04-18T15:18:13.883Z,48.22
2023-04-18T15:20:50.237Z,48.08
2023-04-18T15:23:26.725Z,47.95
2023-04-18T15:26:03.470Z,47.18
2023-04-18T15:28:41.003Z,47.54
2023-04-18T15:31:18.068Z,47.96
2023-04-18T15:33:54.405Z,48.60
2023-04-18T15:36:31.873Z,48.58
2023-04-18T15:39:09.394Z,48.72
2023-04-18T15:41:47.625Z,49.54
2023-04-18T15:44:24.175Z,49.47
2023-04-18T15:47:01.983Z,49.47
2023-04-18T15:49:39.669Z,49.72
2023-04-18T15:52:19.716Z,49.94
2023-04-18T15:54:57.702Z,50.48
2023-04-18T15:57:34.704Z,51.16
2023-04-18T16:00:16.532Z,51.05
2023-04-18T16:02:54.202Z,51.96
2023-04-18T16:05:30.987Z,52.07
2023-04-18T16:08:08.969Z,51.75
2023-04-18T16:10:45.525Z,51.85
2023-04-18T16:13:21.889Z,52.01
2023-04-18T16:15:58.313Z,52.68
2023-04-18T16:18:35.133Z,53.52
2023-04-18T16:21:13.746Z,53.82
2023-04-18T16:23:50.980Z,53.87
2023-04-18T16:26:28.769Z,54.02
2023-04-18T16:29:05.435Z,54.31
2023-04-18T16:31:43.324Z,54.80
2023-04-18T16:34:19.886Z,54.61
2023-04-18T16:36:56.656Z,54.64
2023-04-18T16:39:35.499Z,55.14
2023-04-18T16:42:14.014Z,55.68
2023-04-18T16:44:53.243Z,56.12
2023-04-18T16:47:29.992Z,56.11
2023-04-18T16:50:08.194Z,56.48
2023-04-18T16:52:45.011Z,56.51
2023-04-18T16:55:21.660Z,57.02
2023-04-18T16:57:58.334Z,57.18
2023-04-18T17:00:36.418Z,57.73
2023-04-18T17:03:14.930Z,57.91
2023-04-18T17:05:51.627Z,58.16
2023-04-18T17:08:28.819Z,58.51
2023-04-18T17:11:05.489Z,58.77
2023-04-18T17:13:41.956Z,59.15
2023-04-18T17:16:18.851Z,59.46
2023-04-18T17:18:55.610Z,59.80
2023-04-18T17:21:32.692Z,59.98
2023-04-18T17:24:10.155Z,60.10
2023-04-18T17:26:46.598Z,60.38
2023-04-18T17:29:26.595Z,60.60
2023-04-18T17:32:03.290Z,60.79
2023-04-18T17:34:39.841Z,60.76
2023-04-18T17:37:17.133Z,60.90
2023-04-18T17:39:54.678Z,61.39
2023-04-18T17:42:30.984Z,61.72
2023-04-18T17:45:11.338Z,62.01
2023-04-18T17:47:47.737Z,61.96
2023-04-18T17:50:24.491Z,62.03
2023-04-18T17:53:00.907Z,62.32
2023-04-18T17:55:45.526Z,62.54
2023-04-18T17:58:22.483Z,62.66
2023-04-18T18:01:19.768Z,62.27
2023-04-18T18:04:02.074Z,62.23
2023-04-18T18:06:39.314Z,62.63
2023-04-18T18:09:18.856Z,63.07
2023-04-18T18:11:56.124Z,63.08
2023-04-18T18:14:33.449Z,63.82
2023-04-18T18:17:18.590Z,65.08
2023-04-18T18:19:54.963Z,65.45
2023-04-18T18:22:31.944Z,66.97
2023-04-18T18:25:11.219Z,68.59
2023-04-18T18:27:47.993Z,67.72
2023-04-18T18:30:24.662Z,68.07
2023-04-18T18:33:05.722Z,68.23
2023-04-18T18:35:44.979Z,67.45
2023-04-18T18:38:21.824Z,69.10
2023-04-18T18:41:01.680Z,69.02
2023-04-18T18:43:42.925Z,69.26
2023-04-18T18:46:20.640Z,69.25
2023-04-18T18:48:57.821Z,69.10
2023-04-18T18:51:35.662Z,69.47
2023-04-18T18:54:13.342Z,69.21
2023-04-18T18:56:50.080Z,68.58
2023-04-18T18:59:27.080Z,68.80
2023-04-18T19:02:03.778Z,69.49
2023-04-18T19:04:42.527Z,69.63
2023-04-18T19:07:23.840Z,69.91
2023-04-18T19:10:01.853Z,70.52
2023-04-18T19:12:38.933Z,70.55
2023-04-18T19:15:19.781Z,70.53
2023-04-18T19:17:56.980Z,69.99
2023-04-18T19:20:38.898Z,69.66
2023-04-18T19:23:17.005Z,69.33
2023-04-18T19:25:56.756Z,69.60
2023-04-18T19:28:33.778Z,69.72
2023-04-18T19:31:11.449Z,69.90
2023-04-18T19:33:49.704Z,69.81
2023-04-18T19:36:26.976Z,69.63
2023-04-18T19:39:04.207Z,69.56
2023-04-18T19:41:41.599Z,69.58
2023-04-18T19:44:20.634Z,69.32
2023-04-18T19:46:58.135Z,69.11
2023-04-18T19:49:35.369Z,68.88
2023-04-18T19:52:13.227Z,68.78
2023-04-18T19:54:50.512Z,68.67
2023-04-18T19:57:29.054Z,68.49
2023-04-18T20:00:07.002Z,68.26
2023-04-18T20:02:49.027Z,68.16
2023-04-18T20:05:25.879Z,68.14
2023-04-18T20:08:03.116Z,68.27
2023-04-18T20:10:40.056Z,68.32
2023-04-18T20:13:16.892Z,68.22
2023-04-18T20:15:54.119Z,68.21
2023-04-18T20:18:32.168Z,68.18
2023-04-18T20:21:09.720Z,68.01
2023-04-18T20:23:46.604Z,68.00
2023-04-18T20:26:23.526Z,67.99
2023-04-18T20:29:02.349Z,68.02
2023-04-18T20:31:42.412Z,68.03
2023-04-18T20:34:19.182Z,68.09
2023-04-18T20:36:58.208Z,68.18
2023-04-18T20:39:34.851Z,68.29
2023-04-18T20:42:14.847Z,68.46
2023-04-18T20:44:51.316Z,68.67
2023-04-18T20:47:28.322Z,69.00
2023-04-18T20:50:04.899Z,69.27
2023-04-18T20:52:43.766Z,69.34
2023-04-18T20:55:20.828Z,69.44
2023-04-18T20:57:57.114Z,69.68
2023-04-18T21:00:37.857Z,69.96
2023-04-18T21:03:17.837Z,70.09
2023-04-18T21:05:54.383Z,70.47
2023-04-18T21:08:31.888Z,70.75
2023-04-18T21:11:08.787Z,71.14
2023-04-18T21:13:45.130Z,71.55
2023-04-18T21:16:21.562Z,71.56
2023-04-18T21:18:59.190Z,72.21
2023-04-18T21:21:35.766Z,72.22
2023-04-18T21:24:13.314Z,72.33
2023-04-18T21:26:49.936Z,72.48
2023-04-18T21:29:33.007Z,72.98
2023-04-18T21:32:09.718Z,73.24
2023-04-18T21:34:50.185Z,73.26
2023-04-18T21:37:27.361Z,73.80
2023-04-18T21:40:04.925Z,74.10
2023-04-18T21:42:41.552Z,74.71
2023-04-18T21:45:18.368Z,74.58
2023-04-18T21:48:11.757Z,74.94
2023-04-18T21:50:59.656Z,75.33
2023-04-18T21:53:37.203Z,75.42
2023-04-18T21:56:14.306Z,75.88
2023-04-18T21:58:51.027Z,76.73
2023-04-18T22:01:27.560Z,76.54
2023-04-18T22:04:04.327Z,77.72
2023-04-18T22:06:41.709Z,77.49
2023-04-18T22:09:19.346Z,77.56
2023-04-18T22:11:57.114Z,78.42
2023-04-18T22:14:38.322Z,78.17
2023-04-18T22:17:14.814Z,78.25
2023-04-18T22:19:51.193Z,78.60
2023-04-18T22:22:27.663Z,78.34
2023-04-18T22:25:07.458Z,78.45
2023-04-18T22:27:43.906Z,78.46
2023-04-18T22:30:21.245Z,79.09
2023-04-18T22:32:59.070Z,79.18
2023-04-18T22:35:35.516Z,79.11
2023-04-18T22:38:11.895Z,79.38
2023-04-18T22:40:48.681Z,79.79
2023-04-18T22:43:25.095Z,79.40
2023-04-18T22:46:02.218Z,79.52
2023-04-18T22:48:38.649Z,79.87
2023-04-18T22:51:15.490Z,80.05
2023-04-18T22:53:51.920Z,80.17
2023-04-18T22:56:28.395Z,80.22
2023-04-18T22:59:04.795Z,80.65
2023-04-18T23:01:44.562Z,80.50
2023-04-18T23:04:21.517Z,80.71
2023-04-18T23:06:58.058Z,80.77
2023-04-18T23:09:37.594Z,80.93
2023-04-18T23:12:14.111Z,81.37
2023-04-18T23:14:50.956Z,81.27
2023-04-18T23:17:27.214Z,81.50
2023-04-18T23:20:04.480Z,81.74
2023-04-18T23:22:41.632Z,82.09
2023-04-18T23:25:19.420Z,82.35
2023-04-18T23:27:55.754Z,82.67
2023-04-18T23:30:32.922Z,82.88
2023-04-18T23:33:09.690Z,82.78
2023-04-18T23:35:45.898Z,82.72
2023-04-18T23:38:22.219Z,82.57
2023-04-18T23:40:58.690Z,82.71
2023-04-18T23:43:36.187Z,82.85
2023-04-18T23:46:13.457Z,83.05
2023-04-18T23:48:49.749Z,82.81
2023-04-18T23:51:29.677Z,82.63
2023-04-18T23:54:06.309Z,83.04
2023-04-18T23:56:42.533Z,83.07
2023-04-18T23:59:18.721Z,82.82
